Time;durP1;ratioP1;P1;durP2;ratioP2;P2;SDS_P1;SDS_P2;PMS_P1;PMS_P2;Temp;Humidity;BMP_temperature;BMP_pressure;BME280_temperature;BME280_humidity;BME280_pressure;Samples;Min_cycle;Max_cycle;Signal;HPM_P1;HPM_P2
2022/06/11 00:00:24;;;;;;;12.85;5.38;;;16.60;99.90;;;;;;5055357;28;20060;-87
2022/06/11 00:02:50;;;;;;;11.52;4.18;;;16.50;99.90;;;;;;5059248;28;20488;-85
2022/06/11 00:05:16;;;;;;;9.85;4.65;;;16.50;99.90;;;;;;5074983;28;20061;-87
2022/06/11 00:07:42;;;;;;;9.50;4.65;;;16.50;99.90;;;;;;5054956;28;20056;-88
2022/06/11 00:10:09;;;;;;;11.82;4.32;;;16.50;99.90;;;;;;5077071;28;20071;-86
2022/06/11 00:12:35;;;;;;;8.98;4.45;;;16.30;99.90;;;;;;5069251;28;20472;-85
2022/06/11 00:15:02;;;;;;;10.00;3.60;;;16.40;99.90;;;;;;5061156;28;20135;-86
2022/06/11 00:17:28;;;;;;;8.48;2.95;;;16.30;99.90;;;;;;5066039;28;20045;-87
2022/06/11 00:20:08;;;;;;;7.20;3.00;;;16.30;99.90;;;;;;5050946;28;20045;-87
2022/06/11 00:22:34;;;;;;;9.32;3.30;;;16.30;99.90;;;;;;5054068;28;20123;-86
2022/06/11 00:25:00;;;;;;;9.68;3.28;;;16.20;99.90;;;;;;5062603;28;20136;-86
2022/06/11 00:27:26;;;;;;;7.95;2.85;;;16.20;99.90;;;;;;5068302;28;20039;-87
2022/06/11 00:29:52;;;;;;;7.50;2.72;;;16.20;99.90;;;;;;5046848;28;20393;-87
2022/06/11 00:32:19;;;;;;;8.95;2.58;;;16.10;99.90;;;;;;5055605;28;20045;-85
2022/06/11 00:34:45;;;;;;;8.48;3.55;;;16.10;99.90;;;;;;5055617;28;20044;-87
2022/06/11 00:37:13;;;;;;;14.13;3.40;;;16.00;99.90;;;;;;5056378;28;20489;-85
2022/06/11 00:39:40;;;;;;;8.63;3.13;;;16.00;99.90;;;;;;5060164;28;20551;-86
2022/06/11 00:42:20;;;;;;;11.60;2.47;;;16.00;99.90;;;;;;5056513;28;20041;-87
2022/06/11 00:44:47;;;;;;;9.48;2.30;;;15.90;99.90;;;;;;5056102;28;20045;-86
2022/06/11 00:47:18;;;;;;;7.10;2.10;;;15.80;99.90;;;;;;5060307;28;20072;-86
2022/06/11 00:49:54;;;;;;;7.75;2.50;;;15.80;99.90;;;;;;5073420;28;20466;-87
2022/06/11 00:52:30;;;;;;;8.38;2.47;;;15.80;99.90;;;;;;5055336;28;20404;-86
2022/06/11 00:55:04;;;;;;;12.20;2.50;;;15.70;99.90;;;;;;5055083;28;20045;-87
2022/06/11 00:57:35;;;;;;;10.03;2.40;;;15.70;99.90;;;;;;5054772;28;20067;-87
2022/06/11 01:00:07;;;;;;;11.70;2.60;;;15.60;99.90;;;;;;5055607;28;20834;-86
2022/06/11 01:02:34;;;;;;;7.22;1.80;;;15.60;99.90;;;;;;5055885;28;20079;-86
2022/06/11 01:05:02;;;;;;;13.00;2.28;;;15.60;99.90;;;;;;5066104;28;20105;-86
2022/06/11 01:07:54;;;;;;;7.82;2.15;;;15.60;99.90;;;;;;5066265;28;20098;-87
2022/06/11 01:10:32;;;;;;;8.73;1.90;;;15.50;99.90;;;;;;5068337;28;20044;-86
2022/06/11 01:13:33;;;;;;;10.27;3.03;;;15.50;99.90;;;;;;5055899;28;20080;-86
2022/06/11 01:16:22;;;;;;;7.47;2.17;;;15.50;99.90;;;;;;5049829;28;20416;-87
2022/06/11 01:19:21;;;;;;;10.70;2.17;;;15.40;99.90;;;;;;5054721;28;20056;-86
2022/06/11 01:22:17;;;;;;;8.80;2.65;;;15.40;99.90;;;;;;5056307;28;20052;-87
2022/06/11 01:25:00;;;;;;;7.60;2.20;;;15.40;99.90;;;;;;5068652;28;20127;-86
2022/06/11 01:27:36;;;;;;;6.68;2.00;;;15.40;99.90;;;;;;5070005;28;20477;-86
2022/06/11 01:30:15;;;;;;;13.10;2.70;;;15.30;99.90;;;;;;5058396;28;20099;-86
2022/06/11 01:33:13;;;;;;;10.55;2.20;;;15.20;99.90;;;;;;5054883;28;20129;-86
2022/06/11 01:36:08;;;;;;;9.18;2.65;;;15.20;99.90;;;;;;5070359;28;20032;-86
2022/06/11 01:38:57;;;;;;;12.38;2.67;;;15.10;99.90;;;;;;5073597;28;20090;-86
2022/06/11 01:41:46;;;;;;;12.75;3.05;;;15.10;99.90;;;;;;5047444;28;20077;-87
2022/06/11 01:44:18;;;;;;;12.20;2.80;;;15.00;99.90;;;;;;5054228;28;20052;-86
2022/06/11 01:46:52;;;;;;;10.18;2.63;;;14.90;99.90;;;;;;5036729;28;20079;-86
2022/06/11 01:49:21;;;;;;;11.60;2.40;;;14.80;99.90;;;;;;5062612;28;20045;-86
2022/06/11 01:52:07;;;;;;;15.05;2.63;;;14.80;99.90;;;;;;5053238;28;20622;-87
2022/06/11 01:54:52;;;;;;;10.48;2.50;;;14.80;99.90;;;;;;5059886;28;20047;-86
2022/06/11 01:57:58;;;;;;;11.60;2.90;;;14.80;99.90;;;;;;5058607;28;20064;-87
2022/06/11 02:00:45;;;;;;;6.47;1.88;;;14.80;99.90;;;;;;5055367;28;20055;-86
2022/06/11 02:03:19;;;;;;;9.30;2.20;;;14.70;99.90;;;;;;5059501;28;20053;-86
2022/06/11 02:06:06;;;;;;;9.32;2.45;;;14.60;99.90;;;;;;5054175;28;20037;-86
2022/06/11 02:09:16;;;;;;;10.55;2.45;;;14.60;99.90;;;;;;5050881;28;20412;-86
2022/06/11 02:11:45;;;;;;;8.65;2.78;;;14.50;99.90;;;;;;5066973;28;20114;-86
2022/06/11 02:14:47;;;;;;;7.90;2.30;;;14.50;99.90;;;;;;5051973;28;20083;-86
2022/06/11 02:17:19;;;;;;;10.32;2.83;;;14.10;99.90;;;;;;5063094;28;20048;-86
2022/06/11 02:19:57;;;;;;;7.25;2.10;;;14.40;99.90;;;;;;5041071;28;20055;-86
2022/06/11 02:22:39;;;;;;;15.90;3.20;;;14.30;99.90;;;;;;5057383;28;20392;-86
2022/06/11 02:25:30;;;;;;;13.73;2.75;;;14.40;99.90;;;;;;5037394;28;20145;-86
2022/06/11 02:28:06;;;;;;;12.50;2.33;;;14.40;99.90;;;;;;5054177;28;20049;-86
2022/06/11 02:30:34;;;;;;;12.98;3.10;;;14.30;99.90;;;;;;5057188;28;20052;-85
2022/06/11 02:33:01;;;;;;;10.65;2.78;;;14.30;99.90;;;;;;5035678;28;20614;-85
2022/06/11 02:35:37;;;;;;;10.85;3.03;;;14.20;99.90;;;;;;5053308;28;20382;-86
2022/06/11 02:38:06;;;;;;;9.63;2.95;;;14.30;99.90;;;;;;5067088;28;20032;-86
2022/06/11 02:40:37;;;;;;;12.93;2.75;;;14.30;99.90;;;;;;5074346;28;20442;-86
2022/06/11 02:43:03;;;;;;;16.25;3.10;;;14.30;99.90;;;;;;5054218;28;20041;-86
2022/06/11 02:45:29;;;;;;;9.07;2.53;;;14.30;99.90;;;;;;5072926;28;20119;-86
2022/06/11 02:47:54;;;;;;;8.07;2.05;;;14.20;99.90;;;;;;5070197;28;20044;-86
2022/06/11 02:50:28;;;;;;;14.85;2.70;;;14.20;99.90;;;;;;5066258;28;20041;-86
2022/06/11 02:52:54;;;;;;;10.77;2.80;;;14.20;99.90;;;;;;5036665;28;20542;-86
2022/06/11 02:55:22;;;;;;;15.30;3.17;;;14.20;99.90;;;;;;5068790;28;20044;-86
2022/06/11 02:57:48;;;;;;;8.82;1.85;;;14.20;99.90;;;;;;5036036;28;20036;-86
2022/06/11 03:00:18;;;;;;;14.00;3.13;;;14.10;99.90;;;;;;5036265;28;20051;-86
2022/06/11 03:02:47;;;;;;;14.25;3.40;;;14.10;99.90;;;;;;5065125;28;20037;-86
2022/06/11 03:05:19;;;;;;;13.95;3.28;;;14.10;99.90;;;;;;5062229;28;20089;-86
2022/06/11 03:07:45;;;;;;;11.93;2.97;;;14.00;99.90;;;;;;5049970;28;20073;-85
2022/06/11 03:10:13;;;;;;;13.27;2.90;;;14.00;99.90;;;;;;5035081;28;20067;-86
2022/06/11 03:12:40;;;;;;;12.57;3.30;;;14.00;99.90;;;;;;5052817;28;20390;-86
2022/06/11 03:15:06;;;;;;;8.55;2.90;;;13.90;99.90;;;;;;5063142;28;20032;-86
2022/06/11 03:17:32;;;;;;;16.17;3.75;;;14.00;99.90;;;;;;5055056;28;20491;-86
2022/06/11 03:19:57;;;;;;;14.68;4.32;;;13.90;99.90;;;;;;5061939;28;20088;-86
2022/06/11 03:22:23;;;;;;;15.35;4.30;;;14.00;99.90;;;;;;5035604;28;20037;-86
2022/06/11 03:24:58;;;;;;;13.13;3.38;;;13.90;99.90;;;;;;5042418;28;20141;-87
2022/06/11 03:27:24;;;;;;;17.02;4.55;;;13.90;99.90;;;;;;5054780;28;20049;-86
2022/06/11 03:29:51;;;;;;;15.43;3.92;;;13.90;99.90;;;;;;5066434;28;20048;-86
2022/06/11 03:32:18;;;;;;;24.20;3.80;;;13.90;99.90;;;;;;5065337;28;20079;-87
2022/06/11 03:34:45;;;;;;;22.05;3.80;;;13.90;99.90;;;;;;5053230;28;20041;-86
2022/06/11 03:37:12;;;;;;;12.95;3.70;;;13.90;99.90;;;;;;5072356;28;20048;-87
2022/06/11 03:39:38;;;;;;;21.38;3.78;;;14.00;99.90;;;;;;5041933;28;20071;-85
2022/06/11 03:42:05;;;;;;;17.50;3.40;;;14.00;99.90;;;;;;5055350;28;20068;-88
2022/06/11 03:44:30;;;;;;;13.13;3.92;;;14.10;99.90;;;;;;5064373;28;20040;-86
2022/06/11 03:46:56;;;;;;;11.40;3.22;;;14.10;99.90;;;;;;5056186;28;20500;-87
2022/06/11 03:49:23;;;;;;;14.48;3.53;;;14.10;99.90;;;;;;5053022;28;20037;-86
2022/06/11 03:51:49;;;;;;;15.75;3.17;;;14.20;99.90;;;;;;5052435;28;20044;-85
2022/06/11 03:54:15;;;;;;;20.75;4.07;;;14.20;99.90;;;;;;5036859;28;20041;-86
2022/06/11 03:56:42;;;;;;;23.42;3.72;;;14.20;99.90;;;;;;5066492;28;20127;-86
2022/06/11 03:59:09;;;;;;;21.08;3.53;;;14.20;99.90;;;;;;5068398;28;20041;-85
2022/06/11 04:01:36;;;;;;;18.55;3.90;;;14.20;99.90;;;;;;5052642;28;20496;-86
2022/06/11 04:04:07;;;;;;;15.23;4.05;;;14.30;99.90;;;;;;5055595;28;20037;-86
2022/06/11 04:06:48;;;;;;;18.15;3.95;;;14.30;99.90;;;;;;5069161;28;20044;-87
2022/06/11 04:09:35;;;;;;;25.17;3.88;;;14.30;99.90;;;;;;5055271;28;20052;-85
2022/06/11 04:12:03;;;;;;;15.68;4.40;;;14.30;99.90;;;;;;5065980;28;20110;-87
2022/06/11 04:14:29;;;;;;;18.27;3.67;;;14.30;99.90;;;;;;5050387;28;20040;-85
2022/06/11 04:17:01;;;;;;;20.55;3.58;;;14.40;99.90;;;;;;5035306;28;20048;-86
2022/06/11 04:19:33;;;;;;;17.48;3.85;;;14.40;99.90;;;;;;5034463;28;20389;-86
2022/06/11 04:22:00;;;;;;;18.42;4.28;;;14.40;99.90;;;;;;5058475;28;20115;-85
2022/06/11 04:24:28;;;;;;;17.38;3.70;;;14.50;99.90;;;;;;5070053;28;20452;-87
2022/06/11 04:26:56;;;;;;;17.17;3.53;;;14.50;99.90;;;;;;5051534;28;20418;-89
2022/06/11 04:29:27;;;;;;;14.02;3.15;;;14.60;99.90;;;;;;5072990;28;20036;-85
2022/06/11 04:31:55;;;;;;;14.68;3.95;;;14.70;99.90;;;;;;5070217;28;20138;-85
2022/06/11 04:34:22;;;;;;;27.50;5.70;;;14.70;99.90;;;;;;5054392;28;20175;-86
2022/06/11 04:36:49;;;;;;;19.30;3.53;;;14.80;99.90;;;;;;5053724;28;20393;-88
2022/06/11 04:39:19;;;;;;;21.48;4.53;;;14.90;99.90;;;;;;5086472;28;20489;-88
2022/06/11 04:41:45;;;;;;;19.58;4.80;;;15.00;99.90;;;;;;5060691;28;20049;-88
2022/06/11 04:44:12;;;;;;;16.42;3.38;;;15.00;99.90;;;;;;5054937;28;20049;-88
2022/06/11 04:46:38;;;;;;;15.55;3.92;;;15.10;99.90;;;;;;5055334;28;20056;-86
2022/06/11 04:49:05;;;;;;;18.85;3.88;;;15.20;99.90;;;;;;5054111;28;20055;-87
2022/06/11 04:51:32;;;;;;;24.13;4.10;;;15.20;99.90;;;;;;5038416;28;20052;-87
2022/06/11 04:53:57;;;;;;;17.38;3.75;;;15.30;99.90;;;;;;5069350;28;20049;-88
2022/06/11 04:56:27;;;;;;;23.02;5.20;;;15.30;99.90;;;;;;5069274;28;20043;-86
2022/06/11 04:58:54;;;;;;;21.02;3.83;;;15.40;99.90;;;;;;5067709;28;20075;-87
2022/06/11 05:01:21;;;;;;;18.80;5.03;;;15.50;99.90;;;;;;5072509;28;20443;-87
2022/06/11 05:03:49;;;;;;;15.00;3.60;;;15.50;99.90;;;;;;5055319;28;20135;-87
2022/06/11 05:06:27;;;;;;;23.33;3.80;;;15.50;99.90;;;;;;5059212;28;20102;-87
2022/06/11 05:08:53;;;;;;;16.52;4.03;;;15.60;99.90;;;;;;5056800;28;20389;-87
2022/06/11 05:11:19;;;;;;;20.73;4.95;;;15.70;99.90;;;;;;5055924;28;20044;-87
2022/06/11 05:13:45;;;;;;;22.52;5.63;;;15.70;99.90;;;;;;5064295;28;20395;-87
2022/06/11 05:16:14;;;;;;;22.52;4.57;;;15.70;99.90;;;;;;5062300;28;20095;-86
2022/06/11 05:18:40;;;;;;;21.52;4.57;;;15.80;99.90;;;;;;5067570;28;20506;-84
2022/06/11 05:21:06;;;;;;;20.45;4.95;;;15.80;99.90;;;;;;5072970;28;20131;-86
2022/06/11 05:23:31;;;;;;;31.20;6.55;;;15.80;99.90;;;;;;5057047;28;20045;-90
2022/06/11 05:25:57;;;;;;;23.27;4.25;;;15.80;99.90;;;;;;5055270;28;20053;-89
2022/06/11 05:28:28;;;;;;;24.10;5.05;;;16.00;99.90;;;;;;5070347;28;20041;-86
2022/06/11 05:30:54;;;;;;;24.40;4.53;;;16.10;99.90;;;;;;5058154;28;20041;-84
2022/06/11 05:33:21;;;;;;;26.05;5.00;;;16.10;99.90;;;;;;5056944;28;20057;-92
2022/06/11 05:35:48;;;;;;;25.13;4.68;;;16.10;99.90;;;;;;5054921;28;20053;-88
2022/06/11 05:38:17;;;;;;;21.48;6.28;;;16.20;99.90;;;;;;5053955;28;20041;-88
2022/06/11 05:40:45;;;;;;;21.42;5.43;;;16.20;99.90;;;;;;5057132;28;20049;-86
2022/06/11 05:43:12;;;;;;;24.38;5.10;;;16.30;99.90;;;;;;5069470;28;20044;-87
2022/06/11 05:45:48;;;;;;;28.40;6.22;;;16.30;99.90;;;;;;5065615;28;20055;-87
2022/06/11 05:48:17;;;;;;;26.77;5.85;;;16.40;99.90;;;;;;5085397;28;20033;-85
2022/06/11 05:50:46;;;;;;;30.65;6.68;;;16.50;99.90;;;;;;5054682;28;20045;-89
2022/06/11 05:53:16;;;;;;;24.52;5.10;;;16.50;99.90;;;;;;5054133;28;20119;-84
2022/06/11 05:55:44;;;;;;;31.15;6.65;;;16.50;99.90;;;;;;5069113;28;20052;-86
2022/06/11 05:58:15;;;;;;;31.33;6.25;;;16.50;99.90;;;;;;5071892;28;20155;-85
2022/06/11 06:00:41;;;;;;;29.33;6.50;;;16.50;99.90;;;;;;5068511;28;20488;-86
2022/06/11 06:03:07;;;;;;;26.08;5.90;;;16.50;99.90;;;;;;5072128;28;20063;-87
2022/06/11 06:05:33;;;;;;;27.65;5.53;;;16.60;99.90;;;;;;5074314;28;20488;-87
2022/06/11 06:07:59;;;;;;;30.90;4.97;;;16.60;99.90;;;;;;5058679;28;20043;-90
2022/06/11 06:10:25;;;;;;;26.48;6.43;;;16.60;99.90;;;;;;5053980;28;20419;-86
2022/06/11 06:12:51;;;;;;;24.77;5.47;;;16.70;99.90;;;;;;5053065;28;20048;-86
2022/06/11 06:15:22;;;;;;;32.08;6.78;;;16.70;99.90;;;;;;5056027;28;20124;-87
2022/06/11 06:17:49;;;;;;;36.88;6.57;;;16.80;99.90;;;;;;5037038;28;20045;-85
2022/06/11 06:20:16;;;;;;;31.05;8.38;;;16.90;99.90;;;;;;5060786;28;20186;-88
2022/06/11 06:22:43;;;;;;;27.33;6.03;;;16.90;99.90;;;;;;5062112;28;20099;-86
2022/06/11 06:25:12;;;;;;;30.88;5.97;;;17.00;99.90;;;;;;5074105;28;20048;-88
2022/06/11 06:27:38;;;;;;;29.05;6.05;;;17.00;99.90;;;;;;5044911;28;20047;-89
2022/06/11 06:30:06;;;;;;;31.33;6.47;;;17.10;99.90;;;;;;5060398;28;20040;-87
2022/06/11 06:32:31;;;;;;;30.15;6.05;;;17.20;99.90;;;;;;5035754;28;20385;-87
2022/06/11 06:34:57;;;;;;;29.50;6.93;;;17.20;99.90;;;;;;5053911;28;20102;-85
2022/06/11 06:37:23;;;;;;;32.42;5.45;;;17.30;99.90;;;;;;5052862;28;20048;-86
2022/06/11 06:39:49;;;;;;;26.63;5.88;;;17.40;99.90;;;;;;5052566;28;20045;-85
2022/06/11 06:42:15;;;;;;;32.40;6.88;;;17.50;99.90;;;;;;5052280;28;20119;-89
2022/06/11 06:44:41;;;;;;;33.95;7.15;;;17.50;99.90;;;;;;5055654;28;20040;-86
2022/06/11 06:47:07;;;;;;;31.42;6.75;;;17.50;99.90;;;;;;5073118;28;20041;-85
2022/06/11 06:49:33;;;;;;;26.73;6.03;;;17.60;99.90;;;;;;5060052;28;20089;-86
2022/06/11 06:51:58;;;;;;;33.00;6.93;;;17.60;99.90;;;;;;5078619;28;20408;-88
2022/06/11 06:54:24;;;;;;;33.75;6.97;;;17.70;99.90;;;;;;5053147;28;20132;-89
2022/06/11 06:56:50;;;;;;;21.40;5.50;;;17.80;99.90;;;;;;5052435;28;20128;-84
2022/06/11 06:59:16;;;;;;;20.67;5.85;;;17.80;99.90;;;;;;5065381;28;20040;-85
2022/06/11 07:01:44;;;;;;;35.00;7.28;;;17.80;99.90;;;;;;5059912;28;20096;-89
2022/06/11 07:04:12;;;;;;;29.20;5.90;;;17.80;99.90;;;;;;5061348;28;20107;-93
2022/06/11 07:06:38;;;;;;;30.95;5.85;;;17.90;99.90;;;;;;5036955;28;20060;-88
2022/06/11 07:09:04;;;;;;;29.92;6.38;;;17.90;99.90;;;;;;5055979;28;20033;-87
2022/06/11 07:11:30;;;;;;;25.15;5.65;;;18.00;99.90;;;;;;5061506;28;20075;-86
2022/06/11 07:13:56;;;;;;;23.38;5.05;;;18.10;99.90;;;;;;5057693;28;20045;-90
2022/06/11 07:16:32;;;;;;;26.60;5.22;;;18.10;99.90;;;;;;5051821;28;20190;-90
2022/06/11 07:19:02;;;;;;;25.88;5.43;;;18.20;99.90;;;;;;5054346;28;20377;-88
2022/06/11 07:21:37;;;;;;;22.92;5.15;;;18.20;99.90;;;;;;5054629;28;20049;-85
2022/06/11 07:24:16;;;;;;;22.58;5.13;;;18.20;99.90;;;;;;5066818;28;20036;-94
2022/06/11 07:26:46;;;;;;;36.35;5.78;;;18.30;99.90;;;;;;5086274;28;20105;-92
2022/06/11 07:29:27;;;;;;;27.55;5.57;;;18.30;99.90;;;;;;5075061;28;20040;-84
2022/06/11 07:32:01;;;;;;;32.25;5.38;;;18.40;99.90;;;;;;5071429;28;20052;-85
2022/06/11 07:34:28;;;;;;;27.23;5.82;;;18.50;99.90;;;;;;5055766;28;20523;-86
2022/06/11 07:36:56;;;;;;;21.42;5.20;;;18.50;99.90;;;;;;5070916;28;20048;-84
2022/06/11 07:39:22;;;;;;;31.45;5.10;;;18.70;99.90;;;;;;5082401;28;20037;-87
2022/06/11 07:41:48;;;;;;;27.38;4.80;;;18.70;99.90;;;;;;5069375;28;20399;-87
2022/06/11 07:44:14;;;;;;;26.80;5.22;;;18.80;99.90;;;;;;5055115;28;20047;-87
2022/06/11 07:46:39;;;;;;;21.52;5.07;;;18.80;99.90;;;;;;5072348;28;20045;-86
2022/06/11 07:49:05;;;;;;;33.08;5.70;;;18.80;99.90;;;;;;5084143;28;20047;-88
2022/06/11 07:51:31;;;;;;;29.55;5.70;;;18.90;99.90;;;;;;5054169;28;20049;-90
2022/06/11 07:53:57;;;;;;;19.65;4.38;;;18.80;99.90;;;;;;5072352;28;20048;-83
2022/06/11 07:56:22;;;;;;;25.48;5.07;;;18.90;99.90;;;;;;5074724;28;20045;-87
2022/06/11 07:58:49;;;;;;;23.77;5.20;;;18.90;99.90;;;;;;5056253;28;20050;-87
2022/06/11 08:01:15;;;;;;;23.83;4.72;;;18.90;99.90;;;;;;5072111;28;20087;-87
2022/06/11 08:03:41;;;;;;;25.83;6.18;;;18.80;99.90;;;;;;5069985;28;20060;-92
2022/06/11 08:06:08;;;;;;;29.10;5.30;;;18.80;99.90;;;;;;5080882;28;20495;-93
2022/06/11 08:08:35;;;;;;;30.27;5.75;;;18.70;99.90;;;;;;5059370;28;20040;-91
2022/06/11 08:11:03;;;;;;;26.33;4.85;;;18.80;99.90;;;;;;5055858;28;20056;-89
2022/06/11 08:13:29;;;;;;;29.02;4.95;;;18.90;99.90;;;;;;5045584;28;20139;-89
2022/06/11 08:15:55;;;;;;;25.30;5.13;;;18.90;99.90;;;;;;5040659;28;20492;-88
2022/06/11 08:18:22;;;;;;;24.88;5.10;;;18.90;99.90;;;;;;5074278;28;20422;-89
2022/06/11 08:20:50;;;;;;;22.85;5.07;;;19.00;99.90;;;;;;5075132;28;20057;-90
2022/06/11 08:23:16;;;;;;;20.38;5.38;;;19.10;99.90;;;;;;5077805;28;20369;-93
2022/06/11 08:25:42;;;;;;;21.80;5.10;;;19.10;99.90;;;;;;5075292;28;20047;-90
2022/06/11 08:28:11;;;;;;;29.88;4.85;;;19.10;99.90;;;;;;5077335;28;20117;-91
2022/06/11 08:30:46;;;;;;;24.48;4.82;;;19.10;99.90;;;;;;5077033;28;20110;-89
2022/06/11 08:33:13;;;;;;;28.25;5.38;;;18.40;99.90;;;;;;5075355;28;20055;-92
2022/06/11 08:35:39;;;;;;;18.60;4.60;;;19.00;99.90;;;;;;5077697;28;20055;-90
2022/06/11 08:38:06;;;;;;;22.48;5.00;;;19.00;99.90;;;;;;5076542;28;20329;-93
2022/06/11 08:40:39;;;;;;;21.73;4.40;;;19.00;99.90;;;;;;5075089;28;20503;-90
2022/06/11 08:43:19;;;;;;;26.45;4.88;;;18.90;99.90;;;;;;5076712;28;20098;-91
2022/06/11 08:45:52;;;;;;;21.00;5.13;;;18.90;99.90;;;;;;5076066;28;20052;-90
2022/06/11 08:48:26;;;;;;;20.40;4.35;;;18.90;99.90;;;;;;5075532;28;20129;-91
2022/06/11 08:51:05;;;;;;;20.40;3.97;;;19.00;99.90;;;;;;5076552;28;20071;-88
2022/06/11 08:53:33;;;;;;;16.17;4.03;;;19.00;99.90;;;;;;5076906;28;20501;-91
2022/06/11 08:55:59;;;;;;;19.38;4.47;;;19.00;99.90;;;;;;5074728;28;20044;-89
2022/06/11 08:58:50;;;;;;;18.75;4.38;;;19.00;99.90;;;;;;5075319;28;20530;-87
2022/06/11 09:01:29;;;;;;;17.63;3.88;;;19.10;99.90;;;;;;5074970;28;20090;-91
2022/06/11 09:04:04;;;;;;;16.08;3.78;;;19.10;99.90;;;;;;5076090;28;20123;-87
2022/06/11 09:06:49;;;;;;;22.65;4.28;;;19.10;99.90;;;;;;5075541;28;20082;-95
2022/06/11 09:09:40;;;;;;;21.67;3.75;;;19.10;99.90;;;;;;5060865;28;20040;-95
2022/06/11 09:12:24;;;;;;;15.27;4.03;;;19.20;99.90;;;;;;5077338;28;20144;-87
2022/06/11 09:15:16;;;;;;;17.27;3.55;;;19.20;99.90;;;;;;5075412;28;20086;-91
2022/06/11 09:17:59;;;;;;;21.10;3.92;;;19.20;99.90;;;;;;5059417;28;20055;-91
2022/06/11 09:20:35;;;;;;;21.17;3.85;;;19.20;99.90;;;;;;5074804;28;20097;-87
2022/06/11 09:23:20;;;;;;;17.40;3.65;;;19.30;99.90;;;;;;5057177;28;20135;-89
2022/06/11 09:25:54;;;;;;;14.57;3.63;;;19.30;99.90;;;;;;5074567;28;20079;-95
2022/06/11 09:28:32;;;;;;;;;;;19.40;99.90;;;;;;5076638;28;20040;-90
2022/06/11 09:31:20;;;;;;;12.00;2.80;;;19.40;99.90;;;;;;5057459;28;19916;-91
2022/06/11 09:34:00;;;;;;;14.25;3.53;;;19.40;99.90;;;;;;5075674;28;20044;-90
2022/06/11 09:36:33;;;;;;;14.20;3.15;;;19.40;99.90;;;;;;5063027;28;20124;-93
2022/06/11 09:39:25;;;;;;;13.80;3.03;;;19.40;99.90;;;;;;5078184;28;20044;-88
2022/06/11 09:41:55;;;;;;;18.83;4.00;;;19.40;99.90;;;;;;5057688;28;20545;-92
2022/06/11 09:44:31;;;;;;;19.35;3.80;;;19.50;99.90;;;;;;5074844;28;20044;-89
2022/06/11 09:47:24;;;;;;;20.02;3.72;;;19.50;99.90;;;;;;5075941;28;20044;-93
2022/06/11 09:49:56;;;;;;;14.25;3.17;;;19.60;99.90;;;;;;5075383;28;20044;-90
2022/06/11 09:52:31;;;;;;;19.05;3.97;;;19.60;99.90;;;;;;5075533;28;20140;-95
2022/06/11 09:55:21;;;;;;;15.88;4.13;;;19.60;99.90;;;;;;5074911;28;20166;-90
2022/06/11 09:58:15;;;;;;;13.60;3.78;;;19.70;99.90;;;;;;5057048;28;20388;-93
2022/06/11 10:00:46;;;;;;;19.98;5.18;;;19.80;99.90;;;;;;5075059;28;20052;-94
2022/06/11 10:03:35;;;;;;;20.35;4.55;;;19.80;99.90;;;;;;5075240;28;20496;-90
2022/06/11 10:06:16;;;;;;;15.07;3.33;;;19.80;99.90;;;;;;5075992;28;20052;-92
2022/06/11 10:09:09;;;;;;;19.30;3.72;;;19.80;99.90;;;;;;5075857;28;20047;-86
2022/06/11 10:11:46;;;;;;;14.60;3.50;;;19.80;99.90;;;;;;5057217;28;20052;-91
2022/06/11 10:14:29;;;;;;;15.07;3.45;;;19.90;99.90;;;;;;5075403;28;20083;-91
2022/06/11 10:17:01;;;;;;;19.13;4.05;;;20.10;99.90;;;;;;5076253;28;20044;-90
2022/06/11 10:20:00;;;;;;;18.05;3.95;;;20.30;99.90;;;;;;5075141;28;20050;-95
2022/06/11 10:22:32;;;;;;;18.70;4.15;;;20.40;99.90;;;;;;5074994;28;20147;-95
2022/06/11 10:25:24;;;;;;;11.95;2.50;;;20.40;99.90;;;;;;5075916;28;20060;-95
2022/06/11 10:27:55;;;;;;;17.90;3.80;;;20.40;99.90;;;;;;5075722;28;20052;-88
2022/06/11 10:30:33;;;;;;;13.40;3.38;;;20.40;99.90;;;;;;5074832;28;20104;-85
2022/06/11 10:33:03;;;;;;;14.85;2.78;;;20.40;99.90;;;;;;5073782;28;20040;-87
2022/06/11 10:35:41;;;;;;;15.23;3.42;;;20.40;99.90;;;;;;5057219;28;20052;-92
2022/06/11 10:38:13;;;;;;;14.07;3.45;;;20.30;99.90;;;;;;5074893;28;20036;-89
2022/06/11 10:40:42;;;;;;;20.85;4.60;;;20.30;99.90;;;;;;5072986;28;20511;-88
2022/06/11 10:43:18;;;;;;;22.10;5.07;;;20.30;99.90;;;;;;5073519;28;20119;-92
2022/06/11 10:45:47;;;;;;;14.73;3.42;;;20.40;99.90;;;;;;5073744;28;20075;-90
2022/06/11 10:48:20;;;;;;;15.32;3.85;;;20.60;99.90;;;;;;5056955;28;20040;-89
2022/06/11 10:50:47;;;;;;;13.52;3.83;;;20.70;99.90;;;;;;5073060;28;20041;-88
2022/06/11 10:54:08;;;;;;;20.40;4.13;;;20.80;99.90;;;;;;5074494;28;20095;-88
2022/06/11 10:56:43;;;;;;;16.33;3.88;;;20.90;99.90;;;;;;5057879;28;20489;-90
2022/06/11 10:59:15;;;;;;;18.38;3.28;;;20.90;99.90;;;;;;5076556;28;20055;-90
2022/06/11 11:01:50;;;;;;;11.00;2.83;;;20.80;99.90;;;;;;5074296;28;20055;-92
2022/06/11 11:04:28;;;;;;;21.17;4.22;;;20.60;99.90;;;;;;5074477;28;20043;-96
2022/06/11 11:07:19;;;;;;;12.13;3.35;;;20.60;99.90;;;;;;5075027;28;20569;-91
2022/06/11 11:09:46;;;;;;;12.43;2.85;;;20.60;99.90;;;;;;5073565;28;20044;-89
2022/06/11 11:12:26;;;;;;;19.00;3.75;;;20.50;99.90;;;;;;5057565;28;20400;-94
2022/06/11 11:15:17;;;;;;;15.63;3.50;;;20.50;99.90;;;;;;5073393;28;20044;-91
2022/06/11 11:18:00;;;;;;;19.42;4.32;;;20.40;99.90;;;;;;5058943;28;20053;-96
2022/06/11 11:20:37;;;;;;;11.93;2.72;;;20.40;99.90;;;;;;5057872;28;20040;-92
2022/06/11 11:23:09;;;;;;;11.52;3.00;;;20.50;99.90;;;;;;5071831;28;20134;-90
2022/06/11 11:25:50;;;;;;;12.05;2.85;;;20.40;99.90;;;;;;5074735;28;20040;-83
2022/06/11 11:28:28;;;;;;;13.75;2.67;;;20.40;99.90;;;;;;5056608;28;20091;-91
2022/06/11 11:31:25;;;;;;;16.48;3.92;;;20.40;99.90;;;;;;5073184;28;20087;-92
2022/06/11 11:34:16;;;;;;;14.55;2.88;;;20.40;99.90;;;;;;5073388;28;20048;-96
2022/06/11 11:36:43;;;;;;;13.85;2.83;;;20.50;99.90;;;;;;5074048;28;20079;-95
2022/06/11 11:39:18;;;;;;;10.18;2.92;;;20.70;99.90;;;;;;5057543;28;20107;-92
2022/06/11 11:42:02;;;;;;;15.25;3.25;;;20.90;99.90;;;;;;5072966;28;20074;-91
2022/06/11 11:44:33;;;;;;;17.90;3.05;;;21.00;99.90;;;;;;5056559;28;20462;-84
2022/06/11 11:47:05;;;;;;;15.85;3.92;;;20.90;99.90;;;;;;5055836;28;20075;-90
2022/06/11 11:49:33;;;;;;;13.05;2.72;;;20.80;99.90;;;;;;5056136;28;20104;-94
2022/06/11 11:52:07;;;;;;;15.38;2.92;;;20.60;99.90;;;;;;5074301;28;20376;-92
2022/06/11 11:54:34;;;;;;;13.55;2.97;;;20.60;99.90;;;;;;5056751;28;20476;-91
2022/06/11 11:57:05;;;;;;;10.35;2.90;;;20.60;99.90;;;;;;5073033;28;20037;-90
2022/06/11 11:59:45;;;;;;;9.95;2.47;;;20.60;99.90;;;;;;5057310;28;20127;-87
2022/06/11 12:02:26;;;;;;;15.27;3.00;;;20.60;99.90;;;;;;5073901;28;20036;-89
2022/06/11 12:05:07;;;;;;;10.27;2.63;;;20.60;99.90;;;;;;5057137;28;20484;-96
2022/06/11 12:07:41;;;;;;;14.52;2.80;;;20.50;99.90;;;;;;5056785;28;20135;-89
2022/06/11 12:10:18;;;;;;;11.55;2.67;;;20.50;99.90;;;;;;5073511;28;20890;-95
2022/06/11 12:12:50;;;;;;;11.77;2.97;;;20.50;99.90;;;;;;5072552;28;20037;-90
2022/06/11 12:15:23;;;;;;;11.23;2.70;;;20.50;99.90;;;;;;5074754;28;20074;-87
2022/06/11 12:18:10;;;;;;;12.10;3.10;;;20.60;99.90;;;;;;5055790;28;20033;-92
2022/06/11 12:20:47;;;;;;;13.75;2.80;;;20.70;99.90;;;;;;5056317;28;20480;-95
2022/06/11 12:23:55;;;;;;;10.45;2.30;;;20.70;99.90;;;;;;5056089;28;20122;-93
2022/06/11 12:26:27;;;;;;;11.63;2.72;;;20.60;99.90;;;;;;5039514;28;20137;-88
2022/06/11 12:28:59;;;;;;;11.60;2.63;;;20.60;99.90;;;;;;5074335;28;20048;-87
2022/06/11 12:31:29;;;;;;;9.70;2.65;;;20.60;99.90;;;;;;5072547;28;20501;-89
2022/06/11 12:33:56;;;;;;;9.20;2.78;;;20.60;99.90;;;;;;5074183;28;20071;-95
2022/06/11 12:36:37;;;;;;;9.00;2.75;;;20.60;99.90;;;;;;5056116;28;20041;-92
2022/06/11 12:39:10;;;;;;;9.30;2.40;;;20.50;99.90;;;;;;5072445;28;20045;-88
2022/06/11 12:41:46;;;;;;;17.55;4.38;;;20.30;99.90;;;;;;5073463;28;20583;-92
2022/06/11 12:44:33;;;;;;;13.68;2.75;;;20.30;99.90;;;;;;5072763;28;20132;-88
2022/06/11 12:47:01;;;;;;;12.90;2.55;;;20.30;99.90;;;;;;5071567;28;20048;-92
2022/06/11 12:49:44;;;;;;;8.70;2.13;;;20.30;99.90;;;;;;5075983;28;20055;-89
2022/06/11 12:52:25;;;;;;;13.38;3.28;;;20.30;99.90;;;;;;5075813;28;20419;-90
2022/06/11 12:55:04;;;;;;;11.32;2.72;;;20.40;99.90;;;;;;5072449;28;20048;-89
2022/06/11 12:57:52;;;;;;;15.95;3.50;;;20.40;99.90;;;;;;5072707;28;20079;-89
2022/06/11 13:00:20;;;;;;;15.48;2.80;;;20.50;99.90;;;;;;5075997;28;20049;-88
2022/06/11 13:03:08;;;;;;;15.13;3.60;;;20.60;99.90;;;;;;5076035;28;20044;-93
2022/06/11 13:05:39;;;;;;;16.65;3.58;;;20.70;99.90;;;;;;5075786;28;20041;-92
2022/06/11 13:08:21;;;;;;;16.13;3.10;;;20.70;99.90;;;;;;5076520;28;20091;-89